Time;durP1;ratioP1;P1;durP2;ratioP2;P2;SDS_P1;SDS_P2;PMS_P1;PMS_P2;Temp;Humidity;BMP_temperature;BMP_pressure;BME280_temperature;BME280_humidity;BME280_pressure;Samples;Min_cycle;Max_cycle;Signal;HPM_P1;HPM_P2
2022/03/29 00:00:36;;;;;;;;;;;8.00;95.00;;;;;;5082611;28;19987;-89
2022/03/29 00:03:03;;;;;;;;;;;8.00;95.10;;;;;;5082560;28;19920;-89
2022/03/29 00:05:30;;;;;;;;;;;7.90;95.10;;;;;;5083157;28;20239;-89
2022/03/29 00:07:58;;;;;;;;;;;7.90;95.30;;;;;;5083811;28;19921;-89
2022/03/29 00:10:25;;;;;;;;;;;7.90;95.40;;;;;;5083224;28;19991;-89
2022/03/29 00:12:53;;;;;;;;;;;7.90;95.40;;;;;;5087348;28;19920;-89
2022/03/29 00:15:20;;;;;;;;;;;7.80;95.50;;;;;;5086972;28;19944;-89
2022/03/29 00:17:47;;;;;;;;;;;7.80;95.90;;;;;;5086727;28;19948;-89
2022/03/29 00:20:14;;;;;;;;;;;7.70;96.00;;;;;;5086977;28;19921;-89
2022/03/29 00:22:40;;;;;;;;;;;7.70;96.30;;;;;;5086885;28;19920;-89
2022/03/29 00:25:09;;;;;;;;;;;7.60;96.50;;;;;;5088199;28;19991;-90
2022/03/29 00:27:36;;;;;;;;;;;7.70;96.80;;;;;;5086415;28;19931;-88
2022/03/29 00:30:03;;;;;;;;;;;7.60;96.80;;;;;;5088172;28;19992;-89
2022/03/29 00:32:30;;;;;;;;;;;7.60;96.80;;;;;;5091212;28;19921;-89
2022/03/29 00:34:57;;;;;;;;;;;7.60;96.90;;;;;;5096205;28;19930;-89
2022/03/29 00:37:23;;;;;;;;;;;7.60;97.00;;;;;;5095983;28;19921;-90
2022/03/29 00:39:50;;;;;;;;;;;7.50;97.10;;;;;;5086816;28;19921;-89
2022/03/29 00:42:18;;;;;;;;;;;7.60;97.30;;;;;;5077243;28;19921;-89
2022/03/29 00:44:45;;;;;;;;;;;7.40;97.30;;;;;;5066026;28;19921;-89
2022/03/29 00:47:12;;;;;;;;;;;7.40;97.40;;;;;;5082238;28;19927;-89
2022/03/29 00:49:39;;;;;;;;;;;7.40;97.60;;;;;;5088061;28;19942;-90
2022/03/29 00:52:06;;;;;;;;;;;7.30;97.70;;;;;;5089334;28;20295;-89
2022/03/29 00:54:34;;;;;;;;;;;7.30;97.90;;;;;;5088652;28;19983;-90
2022/03/29 00:57:01;;;;;;;;;;;7.20;98.10;;;;;;5085294;28;19982;-89
2022/03/29 00:59:30;;;;;;;;;;;7.20;98.40;;;;;;5085251;28;19921;-89
2022/03/29 01:01:57;;;;;;;;;;;7.20;98.60;;;;;;5085173;28;19920;-89
2022/03/29 01:04:25;;;;;;;;;;;7.10;98.80;;;;;;5085922;28;20105;-89
2022/03/29 01:06:53;;;;;;;;;;;7.10;99.10;;;;;;5085052;28;19931;-90
2022/03/29 01:09:19;;;;;;;;;;;7.10;99.50;;;;;;5085719;28;19920;-89
2022/03/29 01:11:46;;;;;;;;;;;7.10;99.90;;;;;;5080421;28;19928;-89
2022/03/29 01:14:13;;;;;;;;;;;7.00;99.90;;;;;;5065468;28;19920;-90
2022/03/29 01:19:26;;;;;;;;;;;7.00;99.90;;;;;;5085511;28;19966;-89
2022/03/29 01:21:58;;;;;;;;;;;7.00;99.90;;;;;;5085151;28;19920;-89
2022/03/29 01:24:25;;;;;;;;;;;7.00;99.90;;;;;;5084230;28;19927;-89
2022/03/29 01:26:53;;;;;;;;;;;7.00;99.90;;;;;;5085494;28;19929;-89
2022/03/29 01:29:20;;;;;;;;;;;7.00;99.90;;;;;;5084878;28;19991;-89
2022/03/29 01:31:47;;;;;;;;;;;7.00;99.90;;;;;;5085078;28;19979;-90
2022/03/29 01:34:14;;;;;;;;;;;6.90;99.90;;;;;;5094986;28;19987;-89
2022/03/29 01:36:41;;;;;;;;;;;6.90;99.90;;;;;;5088486;28;19996;-89
2022/03/29 01:39:09;;;;;;;;;;;6.90;99.90;;;;;;5085210;28;20082;-89
2022/03/29 01:41:38;;;;;;;;;;;6.90;99.90;;;;;;5085564;28;19992;-90
2022/03/29 01:44:05;;;;;;;;;;;6.90;99.90;;;;;;5064774;28;20234;-90
2022/03/29 01:46:31;;;;;;;;;;;6.90;99.90;;;;;;5067373;28;19987;-89
2022/03/29 01:48:59;;;;;;;;;;;6.80;99.90;;;;;;5067088;28;20222;-90
2022/03/29 01:51:25;;;;;;;;;;;6.80;99.90;;;;;;5085083;28;20158;-90
2022/03/29 01:53:54;;;;;;;;;;;6.80;99.90;;;;;;5084430;28;19924;-90
2022/03/29 01:56:22;;;;;;;;;;;6.80;99.90;;;;;;5084388;28;19920;-91
2022/03/29 01:58:49;;;;;;;;;;;6.70;99.90;;;;;;5084162;28;19920;-90
2022/03/29 02:01:16;;;;;;;;;;;6.70;99.90;;;;;;5084656;28;19980;-89
2022/03/29 02:03:43;;;;;;;;;;;6.80;99.90;;;;;;5082963;28;19928;-89
2022/03/29 02:06:11;;;;;;;;;;;6.70;99.90;;;;;;5082267;28;22793;-90
2022/03/29 02:08:38;;;;;;;;;;;6.60;99.90;;;;;;5084296;28;19926;-90
2022/03/29 02:11:06;;;;;;;;;;;6.60;99.90;;;;;;5071859;28;19944;-89
2022/03/29 02:13:35;;;;;;;;;;;6.60;99.90;;;;;;5070291;28;19920;-90
2022/03/29 02:16:01;;;;;;;;;;;6.50;99.90;;;;;;5083615;28;19988;-88
2022/03/29 02:18:28;;;;;;;;;;;6.50;99.90;;;;;;5076947;28;19931;-90
2022/03/29 02:20:55;;;;;;;;;;;6.40;99.90;;;;;;5096570;28;19987;-90
2022/03/29 02:23:22;;;;;;;;;;;6.30;99.90;;;;;;5075519;28;19920;-90
2022/03/29 02:25:48;;;;;;;;;;;6.40;99.90;;;;;;5083769;28;19983;-89
2022/03/29 02:28:15;;;;;;;;;;;6.30;99.90;;;;;;5094319;28;19920;-89
2022/03/29 02:30:43;;;;;;;;;;;6.30;99.90;;;;;;5095816;28;19920;-89
2022/03/29 02:33:10;;;;;;;;;;;6.30;99.90;;;;;;5083791;28;19932;-89
2022/03/29 02:35:36;;;;;;;;;;;6.30;99.90;;;;;;5077125;28;20165;-89
2022/03/29 02:38:03;;;;;;;;;;;6.30;99.90;;;;;;5083974;28;19983;-89
2022/03/29 02:40:30;;;;;;;;;;;6.30;99.90;;;;;;5083728;28;19987;-89
2022/03/29 02:42:56;;;;;;;;;;;6.30;99.90;;;;;;5083833;28;19920;-90
2022/03/29 02:45:25;;;;;;;;;;;6.30;99.90;;;;;;5083166;28;19992;-89
2022/03/29 02:47:53;;;;;;;;;;;6.30;99.90;;;;;;5083569;28;20115;-89
2022/03/29 02:50:21;;;;;;;;;;;6.20;99.90;;;;;;5082958;28;20127;-89
2022/03/29 02:52:48;;;;;;;;;;;6.20;99.90;;;;;;5083191;28;19988;-89
2022/03/29 02:55:15;;;;;;;;;;;6.10;99.90;;;;;;5083152;28;19921;-89
2022/03/29 02:57:42;;;;;;;;;;;6.00;99.90;;;;;;5083069;28;19991;-89
2022/03/29 03:00:10;;;;;;;;;;;6.00;99.90;;;;;;5083327;28;20224;-89
2022/03/29 03:02:37;;;;;;;;;;;6.00;99.90;;;;;;5082177;28;19921;-89
2022/03/29 03:05:06;;;;;;;;;;;6.00;99.90;;;;;;5078778;28;19920;-89
2022/03/29 03:07:33;;;;;;;;;;;6.00;99.90;;;;;;5083344;28;19990;-89
2022/03/29 03:09:59;;;;;;;;;;;6.00;99.90;;;;;;5077901;28;19992;-89
2022/03/29 03:12:26;;;;;;;;;;;5.90;99.90;;;;;;5082667;28;20219;-89
2022/03/29 03:14:53;;;;;;;;;;;6.00;99.90;;;;;;5082983;28;19944;-89
2022/03/29 03:17:19;;;;;;;;;;;6.00;99.90;;;;;;5083194;28;19920;-90
2022/03/29 03:19:46;;;;;;;;;;;5.90;99.90;;;;;;5083451;28;19920;-89
2022/03/29 03:22:14;;;;;;;;;;;5.90;99.90;;;;;;5082632;28;20227;-89
2022/03/29 03:24:41;;;;;;;;;;;5.80;99.90;;;;;;5083002;28;20254;-89
2022/03/29 03:27:07;;;;;;;;;;;5.70;99.90;;;;;;5082366;28;19939;-89
2022/03/29 03:29:34;;;;;;;;;;;5.70;99.90;;;;;;5083088;28;20258;-89
2022/03/29 03:32:01;;;;;;;;;;;5.60;99.90;;;;;;5082889;28;19920;-89
2022/03/29 03:34:28;;;;;;;;;;;5.70;99.90;;;;;;5082688;28;20211;-89
2022/03/29 03:36:55;;;;;;;;;;;5.60;99.90;;;;;;5082800;28;19991;-90
2022/03/29 03:39:23;;;;;;;;;;;5.60;99.90;;;;;;5075059;28;19945;-90
2022/03/29 03:41:50;;;;;;;;;;;5.60;99.90;;;;;;5067027;28;19920;-90
2022/03/29 03:44:17;;;;;;;;;;;5.60;99.90;;;;;;5083309;28;19983;-88
2022/03/29 03:46:43;;;;;;;;;;;5.80;99.90;;;;;;5085196;28;19926;-90
2022/03/29 03:49:10;;;;;;;;;;;5.60;99.90;;;;;;5088306;28;19991;-90
2022/03/29 03:51:37;;;;;;;;;;;5.50;99.90;;;;;;5087591;28;19948;-90
2022/03/29 03:54:04;;;;;;;;;;;5.50;99.90;;;;;;5086880;28;19920;-89
2022/03/29 03:56:32;;;;;;;;;;;5.40;99.90;;;;;;5089155;28;19963;-90
2022/03/29 03:58:59;;;;;;;;;;;5.40;99.90;;;;;;5107378;28;20231;-90
2022/03/29 04:01:25;;;;;;;;;;;5.40;99.90;;;;;;5107371;28;20230;-89
2022/03/29 04:03:52;;;;;;;;;;;5.30;99.90;;;;;;5087763;28;19920;-90
2022/03/29 04:06:19;;;;;;;;;;;5.40;99.90;;;;;;5067735;28;19966;-90
2022/03/29 04:08:45;;;;;;;;;;;5.40;99.90;;;;;;5067960;28;19929;-90
2022/03/29 04:11:12;;;;;;;;;;;5.30;99.90;;;;;;5073717;28;19987;-89
2022/03/29 04:13:40;;;;;;;;;;;5.30;99.90;;;;;;5086842;28;19921;-90
2022/03/29 04:16:07;;;;;;;;;;;5.20;99.90;;;;;;5066661;28;19927;-89
2022/03/29 04:18:34;;;;;;;;;;;5.20;99.90;;;;;;5067587;28;19927;-89
2022/03/29 04:21:01;;;;;;;;;;;5.20;99.90;;;;;;5081794;28;19928;-88
2022/03/29 04:23:28;;;;;;;;;;;5.20;99.90;;;;;;5098485;22;19994;-71
2022/03/29 04:25:54;;;;;;;;;;;5.20;99.90;;;;;;5085330;28;19928;-72
2022/03/29 04:28:21;;;;;;;;;;;5.20;99.90;;;;;;5086482;28;19920;-71
2022/03/29 04:30:50;;;;;;;;;;;5.10;99.90;;;;;;5097981;28;19920;-70
2022/03/29 04:33:17;;;;;;;;;;;5.10;99.90;;;;;;5112495;28;19920;-71
2022/03/29 04:35:43;;;;;;;;;;;5.10;99.90;;;;;;5107689;28;20116;-70
2022/03/29 04:38:10;;;;;;;;;;;5.00;99.90;;;;;;5108641;28;20119;-71
2022/03/29 04:40:37;;;;;;;;;;;5.00;99.90;;;;;;5107162;28;20105;-70
2022/03/29 04:43:03;;;;;;;;;;;4.90;99.90;;;;;;5096481;28;20224;-71
2022/03/29 04:45:30;;;;;;;;;;;4.90;99.90;;;;;;5104658;28;20230;-70
2022/03/29 04:47:58;;;;;;;;;;;4.90;99.90;;;;;;5099534;28;19969;-70
2022/03/29 04:50:25;;;;;;;;;;;4.80;99.90;;;;;;5091293;28;19929;-73
2022/03/29 04:52:51;;;;;;;;;;;4.80;99.90;;;;;;5126912;28;19978;-70
2022/03/29 04:55:18;;;;;;;;;;;4.80;99.90;;;;;;5111380;28;20150;-71
2022/03/29 04:57:47;;;;;;;;;;;4.80;99.90;;;;;;5085942;28;19920;-70
2022/03/29 05:00:14;;;;;;;;;;;4.80;99.90;;;;;;5086133;28;20151;-70
2022/03/29 05:02:41;;;;;;;;;;;4.80;99.90;;;;;;5105530;28;19926;-70
2022/03/29 05:05:10;;;;;;;;;;;4.80;99.90;;;;;;5096118;28;19987;-70
2022/03/29 05:07:37;;;;;;;;;;;4.80;99.90;;;;;;5104919;28;19924;-69
2022/03/29 05:10:04;;;;;;;;;;;4.70;99.90;;;;;;5106117;28;19920;-69
2022/03/29 05:12:31;;;;;;;;;;;4.70;99.90;;;;;;5106452;28;20115;-74
2022/03/29 05:14:59;;;;;;;;;;;4.70;99.90;;;;;;5086227;28;19924;-70
2022/03/29 05:17:26;;;;;;;;;;;4.60;99.90;;;;;;5085592;28;19983;-71
2022/03/29 05:19:52;;;;;;;;;;;4.60;99.90;;;;;;5097952;28;19920;-70
2022/03/29 05:22:20;;;;;;;;;;;4.60;99.90;;;;;;5105811;28;19920;-71
2022/03/29 05:24:47;;;;;;;;;;;4.60;99.90;;;;;;5106128;28;19920;-70
2022/03/29 05:27:13;;;;;;;;;;;4.60;99.90;;;;;;5105465;28;19920;-70
2022/03/29 05:29:40;;;;;;;;;;;4.60;99.90;;;;;;5105031;28;20161;-71
2022/03/29 05:32:07;;;;;;;;;;;4.60;99.90;;;;;;5102505;22;19936;-70
2022/03/29 05:34:34;;;;;;;;;;;4.50;99.90;;;;;;5085264;28;19924;-70
2022/03/29 05:37:00;;;;;;;;;;;4.50;99.90;;;;;;5084429;28;20092;-68
2022/03/29 05:39:28;;;;;;;;;;;4.50;99.90;;;;;;5085123;28;19920;-71
2022/03/29 05:41:55;;;;;;;;;;;4.50;99.90;;;;;;5084878;28;19935;-70
2022/03/29 05:44:22;;;;;;;;;;;4.50;99.90;;;;;;5085195;28;19927;-70
2022/03/29 05:49:32;;;;;;;;;;;4.60;99.90;;;;;;5096124;28;20070;-70
2022/03/29 05:51:59;;;;;;;;;;;4.60;99.90;;;;;;5104534;28;19924;-69
2022/03/29 05:54:26;;;;;;;;;;;4.60;99.90;;;;;;5098975;28;19921;-69
2022/03/29 05:56:54;;;;;;;;;;;4.70;99.90;;;;;;5083792;28;19926;-70
2022/03/29 05:59:21;;;;;;;;;;;4.70;99.90;;;;;;5084408;28;19934;-69
2022/03/29 06:01:48;;;;;;;;;;;4.70;99.90;;;;;;5084754;28;19946;-70
2022/03/29 06:04:14;;;;;;;;;;;4.80;99.90;;;;;;5085692;28;19933;-70
2022/03/29 06:06:41;;;;;;;;;;;4.80;99.90;;;;;;5103747;28;19920;-70
2022/03/29 06:09:08;;;;;;;;;;;4.90;99.90;;;;;;5103509;28;20118;-69
2022/03/29 06:11:34;;;;;;;;;;;5.00;99.90;;;;;;5103360;28;19920;-69
2022/03/29 06:14:02;;;;;;;;;;;5.00;99.90;;;;;;5084397;28;19920;-70
2022/03/29 06:16:29;;;;;;;;;;;5.10;99.90;;;;;;5083772;28;19974;-70
2022/03/29 06:18:56;;;;;;;;;;;5.10;99.90;;;;;;5100954;28;19920;-70
2022/03/29 06:21:24;;;;;;;;;;;5.10;99.90;;;;;;5105031;28;19948;-70
2022/03/29 06:23:51;;;;;;;;;;;5.20;99.90;;;;;;5103521;28;20254;-71
2022/03/29 06:26:18;;;;;;;;;;;5.20;99.90;;;;;;5103418;28;19928;-70
2022/03/29 06:28:44;;;;;;;;;;;5.30;99.90;;;;;;5104287;28;19920;-70
2022/03/29 06:31:12;;;;;;;;;;;5.30;99.90;;;;;;5104285;28;19927;-70
2022/03/29 06:33:39;;;;;;;;;;;5.40;99.90;;;;;;5103327;28;19927;-70
2022/03/29 06:36:06;;;;;;;;;;;5.40;99.90;;;;;;5119844;28;19926;-70
2022/03/29 06:38:32;;;;;;;;;;;5.50;99.90;;;;;;5124568;28;19920;-69
2022/03/29 06:41:00;;;;;;;;;;;5.50;99.90;;;;;;5106120;28;19924;-70
2022/03/29 06:43:26;;;;;;;;;;;5.60;99.90;;;;;;5103930;28;19942;-68
2022/03/29 06:45:53;;;;;;;;;;;5.70;99.90;;;;;;5113638;28;19991;-69
2022/03/29 06:48:23;;;;;;;;;;;5.80;99.90;;;;;;5104904;28;19927;-70
2022/03/29 06:50:49;;;;;;;;;;;5.80;99.90;;;;;;5103963;28;19987;-70
2022/03/29 06:53:16;;;;;;;;;;;5.90;99.90;;;;;;5111855;28;19920;-70
2022/03/29 06:55:42;;;;;;;;;;;6.00;99.90;;;;;;5110702;28;19983;-68
2022/03/29 06:58:09;;;;;;;;;;;6.10;99.90;;;;;;5103848;28;20089;-69
2022/03/29 07:00:36;;;;;;;;;;;6.10;99.90;;;;;;5091193;28;19926;-70
2022/03/29 07:03:03;;;;;;;;;;;6.20;99.90;;;;;;5103960;28;19922;-70
2022/03/29 07:05:31;;;;;;;;;;;6.30;99.90;;;;;;5087061;28;19935;-70
2022/03/29 07:07:57;;;;;;;;;;;6.40;99.90;;;;;;5084056;28;19920;-69
2022/03/29 07:13:08;;;;;;;;;;;6.60;99.90;;;;;;5103911;28;20282;-70
2022/03/29 07:15:35;;;;;;;;;;;6.60;99.90;;;;;;5100660;28;19920;-70
2022/03/29 07:18:01;;;;;;;;;;;6.70;99.90;;;;;;5084789;28;20112;-69
2022/03/29 07:20:28;;;;;;;;;;;6.80;99.90;;;;;;5101490;28;19987;-71
2022/03/29 07:22:56;;;;;;;;;;;6.90;99.90;;;;;;5097065;28;19926;-70
2022/03/29 07:25:25;;;;;;;;;;;7.00;99.90;;;;;;5097580;28;19983;-70
2022/03/29 07:27:53;;;;;;;;;;;7.10;99.90;;;;;;5103482;28;19920;-71
2022/03/29 07:30:20;;;;;;;;;;;7.30;99.90;;;;;;5090002;28;20022;-70
2022/03/29 07:32:48;;;;;;;;;;;7.40;99.90;;;;;;5103459;28;19927;-70
2022/03/29 07:35:15;;;;;;;;;;;7.60;99.90;;;;;;5092081;28;19920;-71
2022/03/29 07:37:42;;;;;;;;;;;7.70;99.90;;;;;;5083068;28;19927;-71
2022/03/29 07:40:11;;;;;;;;;;;7.80;99.90;;;;;;5083024;28;20398;-71
2022/03/29 07:42:38;;;;;;;;;;;7.90;99.90;;;;;;5083162;28;19926;-70
2022/03/29 07:45:06;;;;;;;;;;;8.10;99.90;;;;;;5083369;28;19928;-70
2022/03/29 07:47:34;;;;;;;;;;;8.30;99.90;;;;;;5082473;28;19921;-70
2022/03/29 07:50:01;;;;;;;;;;;8.50;99.90;;;;;;5086200;28;19920;-70
2022/03/29 07:52:28;;;;;;;;;;;8.60;99.90;;;;;;5096071;28;19921;-69
2022/03/29 07:54:54;;;;;;;;;;;8.70;99.90;;;;;;5083173;28;19920;-70
2022/03/29 07:57:23;;;;;;;;;;;8.80;99.90;;;;;;5082539;28;19935;-71
2022/03/29 07:59:50;;;;;;;;;;;8.90;99.90;;;;;;5102440;28;19984;-71
2022/03/29 08:02:16;;;;;;;;;;;9.10;99.90;;;;;;5102695;28;20092;-69
2022/03/29 08:04:43;;;;;;;;;;;9.10;99.90;;;;;;5095595;28;20116;-70
2022/03/29 08:07:09;;;;;;;;;;;9.30;99.90;;;;;;5102370;28;19984;-70
2022/03/29 08:09:36;;;;;;;;;;;9.40;99.90;;;;;;5099984;28;19928;-71
2022/03/29 08:12:03;;;;;;;;;;;9.50;99.90;;;;;;5083036;28;20115;-71
2022/03/29 08:14:32;;;;;;;;;;;9.70;99.90;;;;;;5082996;28;19920;-70
2022/03/29 08:16:58;;;;;;;;;;;9.90;99.90;;;;;;5082405;28;19920;-71
2022/03/29 08:19:25;;;;;;;;;;;10.20;99.90;;;;;;5086332;28;19928;-70
2022/03/29 08:21:52;;;;;;;;;;;10.40;99.90;;;;;;5090445;28;20115;-71
2022/03/29 08:24:20;;;;;;;;;;;10.60;99.90;;;;;;5103133;28;19987;-71
2022/03/29 08:26:47;;;;;;;;;;;10.70;99.90;;;;;;5099412;28;19935;-72
2022/03/29 08:29:15;;;;;;;;;;;10.80;99.90;;;;;;5082605;28;19924;-71
2022/03/29 08:31:43;;;;;;;;;;;11.00;99.90;;;;;;5082948;28;19959;-71
2022/03/29 08:34:10;;;;;;;;;;;11.10;99.90;;;;;;5117338;28;20174;-71
2022/03/29 08:36:38;;;;;;;;;;;11.10;99.90;;;;;;5115391;28;19920;-71
2022/03/29 08:39:05;;;;;;;;;;;11.20;99.90;;;;;;5114037;28;19920;-70
2022/03/29 08:41:34;;;;;;;;;;;11.30;99.90;;;;;;5117446;28;19926;-70
2022/03/29 08:44:01;;;;;;;;;;;11.40;99.90;;;;;;5106641;28;19924;-71
2022/03/29 08:46:32;;;;;;;;;;;11.60;99.90;;;;;;5124796;28;19920;-71
2022/03/29 08:49:00;;;;;;;;;;;11.70;99.90;;;;;;5127111;28;19954;-70
2022/03/29 08:51:27;;;;;;;;;;;11.90;99.90;;;;;;5114365;28;20123;-70
2022/03/29 08:53:53;;;;;;;;;;;11.90;99.90;;;;;;5106839;28;19988;-71
2022/03/29 08:56:20;;;;;;;;;;;12.00;99.90;;;;;;5125978;28;19920;-71
2022/03/29 08:58:47;;;;;;;;;;;12.10;99.90;;;;;;5125958;28;19920;-71
2022/03/29 09:01:13;;;;;;;;;;;12.20;99.90;;;;;;5126990;28;19920;-72
2022/03/29 09:07:00;;;;;;;;;;;12.40;99.90;;;;;;5120927;27;20215;-71
2022/03/29 09:09:28;;;;;;;;;;;12.60;99.90;;;;;;5120732;28;19991;-72
2022/03/29 09:11:55;;;;;;;;;;;12.60;99.90;;;;;;5109962;28;19920;-71
2022/03/29 09:14:22;;;;;;;;;;;12.70;99.90;;;;;;5097838;28;19920;-73
2022/03/29 09:16:50;;;;;;;;;;;12.80;99.90;;;;;;5100510;28;19920;-71
2022/03/29 09:19:16;;;;;;;;;;;12.90;99.90;;;;;;5100644;28;19927;-72
2022/03/29 09:21:43;;;;;;;;;;;13.10;99.90;;;;;;5100642;28;19927;-71
2022/03/29 09:24:14;;;;;;;;;;;13.10;99.90;;;;;;5100395;28;19927;-72
2022/03/29 09:26:41;;;;;;;;;;;13.30;99.90;;;;;;5100124;28;19946;-73
2022/03/29 09:29:12;;;;;;;;;;;13.40;99.90;;;;;;5100544;28;19935;-71
2022/03/29 09:31:39;;;;;;;;;;;13.40;99.90;;;;;;5100490;28;19920;-71
2022/03/29 09:34:13;;;;;;;;;;;13.50;99.90;;;;;;5100491;28;20096;-71
2022/03/29 09:36:40;;;;;;;;;;;13.60;99.90;;;;;;5099739;28;19927;-72
2022/03/29 09:39:07;;;;;;;;;;;13.70;99.90;;;;;;5100414;28;20143;-72
2022/03/29 09:41:36;;;;;;;;;;;13.90;99.90;;;;;;5100137;28;19920;-72
2022/03/29 09:44:05;;;;;;;;;;;13.90;99.90;;;;;;5100390;28;19932;-72
2022/03/29 09:46:32;;;;;;;;;;;13.90;99.90;;;;;;5099733;28;19920;-74
2022/03/29 09:48:59;;;;;;;;;;;14.10;99.90;;;;;;5100341;28;19921;-72
2022/03/29 09:51:27;;;;;;;;;;;14.30;99.90;;;;;;5100192;28;19924;-72
2022/03/29 09:53:56;;;;;;;;;;;14.40;99.90;;;;;;5100314;28;19920;-73
2022/03/29 09:56:26;;;;;;;;;;;14.50;99.90;;;;;;5099315;28;19920;-75
2022/03/29 09:59:04;;;;;;;;;;;14.60;99.90;;;;;;5100611;28;19920;-72
2022/03/29 10:01:31;;;;;;;;;;;14.70;99.90;;;;;;5098012;28;20049;-72
2022/03/29 10:04:01;;;;;;;;;;;14.80;99.90;;;;;;5099049;28;20015;-72
2022/03/29 10:06:27;;;;;;;;;;;14.90;99.90;;;;;;5117804;28;19979;-72
2022/03/29 10:11:43;;;;;;;;;;;15.10;99.90;;;;;;5120091;28;19923;-72
2022/03/29 10:14:13;;;;;;;;;;;15.30;99.90;;;;;;5117169;28;20246;-69
2022/03/29 10:16:39;;;;;;;;;;;15.40;99.90;;;;;;5113412;28;20207;-71
2022/03/29 10:19:07;;;;;;;;;;;15.50;99.90;;;;;;5106054;28;20215;-68
2022/03/29 10:21:34;;;;;;;;;;;15.70;99.90;;;;;;5106284;28;19924;-70
2022/03/29 10:24:01;;;;;;;;;;;15.80;99.90;;;;;;5106419;28;20119;-67
2022/03/29 10:26:28;;;;;;;;;;;15.80;99.90;;;;;;5105419;28;19924;-67
2022/03/29 10:28:54;;;;;;;;;;;15.90;99.90;;;;;;5106128;28;19920;-68
2022/03/29 10:31:30;;;;;;;;;;;15.90;99.90;;;;;;5106148;28;19928;-69
2022/03/29 10:34:13;;;;;;;;;;;16.00;99.90;;;;;;5106240;28;19924;-69
2022/03/29 10:36:58;;;;;;;;;;;16.20;99.90;;;;;;5105440;28;19920;-69
2022/03/29 10:39:38;;;;;;;;;;;16.40;99.90;;;;;;5106098;28;19927;-71
2022/03/29 10:42:23;;;;;;;;;;;16.50;99.90;;;;;;5105058;28;20116;-72
2022/03/29 10:45:11;;;;;;;;;;;16.40;99.90;;;;;;5105958;28;19927;-72
2022/03/29 10:47:40;;;;;;;;;;;16.50;99.90;;;;;;5100152;28;19927;-73
2022/03/29 10:50:07;;;;;;;;;;;16.50;99.90;;;;;;5105795;28;19927;-71
2022/03/29 10:52:41;;;;;;;;;;;16.60;99.90;;;;;;5105905;28;19924;-72
2022/03/29 10:55:18;;;;;;;;;;;16.60;99.90;;;;;;5105356;28;19926;-70
2022/03/29 10:58:20;;;;;;;;;;;16.60;99.90;;;;;;5105779;28;19991;-68
2022/03/29 11:00:47;;;;;;;;;;;16.70;99.90;;;;;;5043228;28;19963;-70
2022/03/29 11:03:20;;;;;;;;;;;16.90;99.90;;;;;;5040452;28;19980;-70
2022/03/29 11:06:06;;;;;;;;;;;17.10;99.90;;;;;;5071975;28;19987;-70
2022/03/29 11:08:33;;;;;;;;;;;17.10;99.90;;;;;;5105649;28;19920;-70
2022/03/29 11:11:00;;;;;;;;;;;17.20;99.90;;;;;;5105542;28;20092;-70
2022/03/29 11:13:27;;;;;;;;;;;17.30;99.90;;;;;;5105452;28;19951;-70
2022/03/29 11:15:55;;;;;;;;;;;17.40;98.20;;;;;;5104737;28;19927;-70
2022/03/29 11:18:49;;;;;;;;;;;17.50;97.90;;;;;;5105119;28;19987;-69
2022/03/29 11:21:39;;;;;;;;;;;17.50;98.40;;;;;;5105337;28;19919;-70
2022/03/29 11:24:07;;;;;;;;;;;17.50;98.60;;;;;;5105121;28;19926;-70
2022/03/29 11:26:35;;;;;;;;;;;17.60;98.60;;;;;;5104441;28;19931;-69
2022/03/29 11:29:02;;;;;;;;;;;17.60;96.30;;;;;;5104183;28;19920;-71
2022/03/29 11:31:38;;;;;;;;;;;17.50;96.50;;;;;;5084723;28;20208;-70
2022/03/29 11:34:05;;;;;;;;;;;17.70;97.40;;;;;;5100264;28;19926;-70
2022/03/29 11:36:35;;;;;;;;;;;17.70;97.40;;;;;;5103904;28;19926;-70
2022/03/29 11:39:06;;;;;;;;;;;17.70;96.10;;;;;;5104791;28;19920;-70
2022/03/29 11:41:35;;;;;;;;;;;17.70;95.80;;;;;;5104393;28;20119;-70
2022/03/29 11:44:04;;;;;;;;;;;17.80;96.80;;;;;;5104397;28;19986;-70
2022/03/29 11:46:44;;;;;;;;;;;17.70;96.30;;;;;;5103258;28;19923;-70
2022/03/29 11:49:10;;;;;;;;;;;17.70;95.90;;;;;;5101416;28;19920;-68
2022/03/29 11:51:37;;;;;;;;;;;17.60;96.20;;;;;;5104582;28;19927;-68
2022/03/29 11:54:06;;;;;;;;;;;17.60;96.50;;;;;;5104704;28;20203;-69
2022/03/29 11:56:36;;;;;;;;;;;17.50;95.80;;;;;;5102855;28;19920;-69
2022/03/29 11:59:02;;;;;;;;;;;17.50;96.20;;;;;;5101857;28;20107;-69
2022/03/29 12:01:31;;;;;;;;;;;17.60;96.50;;;;;;5102524;28;19927;-74
2022/03/29 12:03:59;;;;;;;;;;;17.70;96.60;;;;;;5103147;28;19920;-69
2022/03/29 12:06:27;;;;;;;;;;;17.80;95.70;;;;;;5103386;28;19920;-69
2022/03/29 12:08:55;;;;;;;;;;;18.00;96.30;;;;;;5104330;28;19927;-70
2022/03/29 12:11:24;;;;;;;;;;;18.00;96.00;;;;;;5104262;28;19920;-72
2022/03/29 12:14:00;;;;;;;;;;;18.30;95.50;;;;;;5101443;28;19930;-72
2022/03/29 12:16:27;;;;;;;;;;;18.50;94.80;;;;;;5103758;28;19965;-69
2022/03/29 12:18:55;;;;;;;;;;;18.70;94.90;;;;;;5103940;28;19920;-70
2022/03/29 12:21:22;;;;;;;;;;;18.80;93.90;;;;;;5104025;28;19920;-69
2022/03/29 12:23:50;;;;;;;;;;;18.70;93.50;;;;;;5102287;28;19995;-69
2022/03/29 12:26:19;;;;;;;;;;;18.70;92.10;;;;;;5103132;28;19920;-69
2022/03/29 12:28:47;;;;;;;;;;;18.40;92.60;;;;;;5103523;28;19935;-69
2022/03/29 12:31:14;;;;;;;;;;;18.40;93.00;;;;;;5103578;28;20199;-69
2022/03/29 12:33:41;;;;;;;;;;;18.40;93.20;;;;;;5103660;28;19920;-69
2022/03/29 12:36:09;;;;;;;;;;;18.30;93.30;;;;;;5102943;28;19927;-70
2022/03/29 12:38:42;;;;;;;;;;;18.40;93.80;;;;;;5103732;28;19920;-70
2022/03/29 12:41:11;;;;;;;;;;;18.50;93.30;;;;;;5102207;28;19920;-70
2022/03/29 12:43:37;;;;;;;;;;;18.60;93.10;;;;;;5104121;28;19920;-70
2022/03/29 12:46:09;;;;;;;;;;;18.50;92.40;;;;;;5103067;28;19924;-69
2022/03/29 12:48:36;;;;;;;;;;;18.60;93.00;;;;;;5103241;28;19983;-70
2022/03/29 12:51:05;;;;;;;;;;;18.60;92.50;;;;;;5103621;28;19927;-71
2022/03/29 12:53:31;;;;;;;;;;;18.90;92.60;;;;;;5101696;28;19958;-70
2022/03/29 12:55:59;;;;;;;;;;;19.00;91.90;;;;;;5102870;28;19920;-70
2022/03/29 12:58:30;;;;;;;;;;;19.10;91.00;;;;;;5103436;28;19924;-70
2022/03/29 13:00:57;;;;;;;;;;;19.10;91.60;;;;;;5103526;28;19921;-70
2022/03/29 13:03:24;;;;;;;;;;;19.10;91.80;;;;;;5099247;28;20207;-70
2022/03/29 13:05:51;;;;;;;;;;;19.20;91.90;;;;;;5102582;28;19920;-71
2022/03/29 13:08:22;;;;;;;;;;;19.20;90.40;;;;;;5103163;28;20219;-70
2022/03/29 13:10:50;;;;;;;;;;;19.10;90.30;;;;;;5103043;28;20131;-70
2022/03/29 13:13:19;;;;;;;;;;;19.10;90.50;;;;;;5103282;28;19927;-70
2022/03/29 13:15:47;;;;;;;;;;;19.00;90.70;;;;;;5102605;28;19927;-67
2022/03/29 13:18:20;;;;;;;;;;;18.90;90.90;;;;;;5103327;28;19924;-68
2022/03/29 13:20:49;;;;;;;;;;;18.80;90.50;;;;;;5102930;28;19933;-68
2022/03/29 13:23:28;;;;;;;;;;;18.60;90.80;;;;;;5102961;28;19987;-67
2022/03/29 13:25:54;;;;;;;;;;;18.50;91.60;;;;;;5102583;28;19927;-67
2022/03/29 13:28:21;;;;;;;;;;;18.40;91.60;;;;;;5102960;28;19927;-67
2022/03/29 13:30:48;;;;;;;;;;;18.30;92.00;;;;;;5102976;28;19920;-69
2022/03/29 13:33:14;;;;;;;;;;;18.20;91.70;;;;;;5102828;28;19969;-67
2022/03/29 13:35:42;;;;;;;;;;;18.10;91.90;;;;;;5102577;28;19924;-68
2022/03/29 13:38:10;;;;;;;;;;;18.10;92.10;;;;;;5103158;28;19920;-67
2022/03/29 13:40:37;;;;;;;;;;;18.00;91.60;;;;;;5103172;28;19946;-67
2022/03/29 13:43:04;;;;;;;;;;;18.10;91.80;;;;;;5103197;28;19920;-68
2022/03/29 13:45:31;;;;;;;;;;;18.00;91.60;;;;;;5101773;28;19988;-68
2022/03/29 13:47:58;;;;;;;;;;;18.00;92.20;;;;;;5102948;28;19920;-68
2022/03/29 13:50:24;;;;;;;;;;;18.10;91.90;;;;;;5102669;28;20112;-71
2022/03/29 13:52:51;;;;;;;;;;;18.20;91.90;;;;;;5105105;28;20286;-70
2022/03/29 13:55:19;;;;;;;;;;;18.30;91.40;;;;;;5106367;28;20095;-72
2022/03/29 13:57:45;;;;;;;;;;;18.30;91.50;;;;;;5106409;28;19924;-69
2022/03/29 14:00:13;;;;;;;;;;;18.40;91.80;;;;;;5103523;28;19920;-70
2022/03/29 14:02:39;;;;;;;;;;;18.40;91.90;;;;;;5103423;28;19920;-70
2022/03/29 14:05:06;;;;;;;;;;;18.40;91.60;;;;;;5105603;28;20107;-70
2022/03/29 14:07:33;;;;;;;;;;;18.30;91.80;;;;;;5105653;28;19920;-70
2022/03/29 14:09:59;;;;;;;;;;;18.20;92.00;;;;;;5105691;28;19928;-70
2022/03/29 14:12:27;;;;;;;;;;;18.20;91.80;;;;;;5106185;28;19927;-69
2022/03/29 14:14:54;;;;;;;;;;;18.10;92.10;;;;;;5105615;28;19924;-69
2022/03/29 14:17:21;;;;;;;;;;;18.10;92.30;;;;;;5105717;28;19920;-70
2022/03/29 14:19:51;;;;;;;;;;;17.90;92.60;;;;;;5106568;28;19942;-70
2022/03/29 14:22:19;;;;;;;;;;;17.90;92.40;;;;;;5102721;28;19927;-69
2022/03/29 14:24:45;;;;;;;;;;;17.90;92.40;;;;;;5106214;28;19923;-70
2022/03/29 14:27:13;;;;;;;;;;;18.00;92.50;;;;;;5096785;28;19920;-70
2022/03/29 14:29:41;;;;;;;;;;;18.00;92.30;;;;;;5105524;28;20269;-69
2022/03/29 14:32:09;;;;;;;;;;;18.10;92.50;;;;;;5105494;28;19932;-70
2022/03/29 14:34:36;;;;;;;;;;;18.00;92.40;;;;;;5103446;28;19920;-69
2022/03/29 14:37:04;;;;;;;;;;;17.90;92.50;;;;;;5105172;28;19935;-71
2022/03/29 14:39:30;;;;;;;;;;;17.70;92.90;;;;;;5103354;28;19920;-70
2022/03/29 14:41:57;;;;;;;;;;;17.60;92.90;;;;;;5105580;28;19926;-70